Time;durP1;ratioP1;P1;durP2;ratioP2;P2;SDS_P1;SDS_P2;PMS_P1;PMS_P2;Temp;Humidity;BMP_temperature;BMP_pressure;BME280_temperature;BME280_humidity;BME280_pressure;Samples;Min_cycle;Max_cycle;Signal;HPM_P1;HPM_P2
2023/09/03 13:27:31;;;;;;;7.43;2.70;;;13.20;83.90;;;;;;6305237;22;20646;-76
2023/09/03 13:29:59;;;;;;;5.25;2.63;;;13.30;84.00;;;;;;6306811;22;20043;-76
2023/09/03 13:32:26;;;;;;;9.32;2.78;;;13.30;84.00;;;;;;6280680;22;20019;-76
2023/09/03 13:34:53;;;;;;;9.32;2.97;;;13.20;83.90;;;;;;6307426;22;20026;-76
2023/09/03 13:37:20;;;;;;;11.15;3.05;;;13.30;84.10;;;;;;6279717;22;20074;-76
2023/09/03 13:39:48;;;;;;;10.82;2.80;;;13.20;84.40;;;;;;6306747;22;20086;-76
2023/09/03 13:42:15;;;;;;;4.35;2.42;;;13.20;84.40;;;;;;6307282;22;20004;-76
2023/09/03 13:44:42;;;;;;;8.90;2.92;;;13.20;84.60;;;;;;6307901;22;20074;-76
2023/09/03 13:47:09;;;;;;;5.95;2.60;;;13.10;84.80;;;;;;6307254;22;20030;-76
2023/09/03 13:49:36;;;;;;;7.97;2.63;;;13.10;84.60;;;;;;6279806;22;20015;-76
2023/09/03 13:52:04;;;;;;;6.50;2.50;;;13.10;84.90;;;;;;6279815;22;20000;-76
2023/09/03 13:54:31;;;;;;;8.48;3.00;;;13.10;85.40;;;;;;6307556;22;20030;-76
2023/09/03 13:56:58;;;;;;;7.60;2.78;;;13.10;85.30;;;;;;6307509;22;20354;-75
2023/09/03 13:59:26;;;;;;;8.82;2.65;;;13.10;85.10;;;;;;6280070;22;20003;-76
2023/09/03 14:01:53;;;;;;;7.68;2.85;;;13.10;85.20;;;;;;6307389;22;20007;-76
2023/09/03 14:04:20;;;;;;;12.60;2.92;;;13.10;85.10;;;;;;6307122;22;20051;-77
2023/09/03 14:06:47;;;;;;;7.18;2.92;;;13.10;85.20;;;;;;6307219;22;20026;-75
2023/09/03 14:09:16;;;;;;;8.38;2.75;;;13.10;85.10;;;;;;6306720;22;20007;-75
2023/09/03 14:11:44;;;;;;;5.70;2.83;;;13.00;85.00;;;;;;6306837;22;20002;-75
2023/09/03 14:14:11;;;;;;;5.63;2.97;;;13.00;85.20;;;;;;6278767;22;20004;-76
2023/09/03 14:16:38;;;;;;;5.18;2.75;;;12.90;85.50;;;;;;6307144;22;19999;-76
2023/09/03 14:19:05;;;;;;;5.45;2.92;;;12.90;85.60;;;;;;6280435;22;20409;-76
2023/09/03 14:21:33;;;;;;;5.05;2.70;;;12.80;85.70;;;;;;6306586;22;19999;-76
2023/09/03 14:24:00;;;;;;;8.05;2.90;;;12.80;85.50;;;;;;6279702;22;20011;-76
2023/09/03 14:26:27;;;;;;;7.95;2.97;;;12.70;85.70;;;;;;6306226;22;20009;-75
2023/09/03 14:28:55;;;;;;;8.00;2.58;;;12.80;85.90;;;;;;6324494;22;20015;-76
2023/09/03 14:31:22;;;;;;;7.95;2.90;;;12.80;85.70;;;;;;6337218;22;19999;-76
2023/09/03 14:33:49;;;;;;;7.28;2.47;;;12.80;85.70;;;;;;6336447;22;20003;-76
2023/09/03 14:36:16;;;;;;;8.07;2.80;;;12.80;85.40;;;;;;6336239;22;20443;-75
2023/09/03 14:38:44;;;;;;;7.22;3.30;;;12.70;85.40;;;;;;6336634;22;20026;-76
2023/09/03 14:41:11;;;;;;;7.45;2.72;;;12.70;85.50;;;;;;6336794;22;20379;-75
2023/09/03 14:43:38;;;;;;;4.75;2.70;;;12.70;85.60;;;;;;6338333;22;20418;-75
2023/09/03 14:46:05;;;;;;;6.60;2.63;;;12.70;85.60;;;;;;6338275;22;20007;-76
2023/09/03 14:48:32;;;;;;;8.27;2.80;;;12.80;85.50;;;;;;6337378;22;20010;-76
2023/09/03 14:51:00;;;;;;;8.20;3.10;;;12.80;85.30;;;;;;6338016;22;20010;-75
2023/09/03 14:53:27;;;;;;;6.25;2.78;;;12.80;85.30;;;;;;6336980;22;20405;-75
2023/09/03 14:55:54;;;;;;;6.70;2.92;;;12.90;85.10;;;;;;6338386;22;19999;-76
2023/09/03 14:58:23;;;;;;;7.10;2.78;;;12.80;85.50;;;;;;6338918;22;20003;-76
2023/09/03 15:00:50;;;;;;;5.47;2.80;;;12.80;85.90;;;;;;6338373;22;20025;-76
2023/09/03 15:03:17;;;;;;;6.90;3.00;;;12.80;86.10;;;;;;6337164;22;20056;-75
2023/09/03 15:05:45;;;;;;;6.07;2.78;;;12.80;86.10;;;;;;6338220;22;19999;-76
2023/09/03 15:08:12;;;;;;;4.28;2.45;;;12.70;86.10;;;;;;6337679;22;20060;-75
2023/09/03 15:10:39;;;;;;;7.70;2.70;;;12.70;86.20;;;;;;6311037;22;20510;-76
2023/09/03 15:13:07;;;;;;;6.38;3.00;;;12.70;86.20;;;;;;6310422;22;20278;-76
2023/09/03 15:15:37;;;;;;;7.85;2.55;;;12.60;86.20;;;;;;6309840;22;20030;-75
2023/09/03 15:18:08;;;;;;;8.50;3.30;;;12.60;86.30;;;;;;6311524;22;19999;-76
2023/09/03 15:20:35;;;;;;;9.52;3.15;;;12.60;86.10;;;;;;6338581;22;20013;-76
2023/09/03 15:23:03;;;;;;;7.47;3.13;;;12.60;86.20;;;;;;6338380;22;20078;-76
2023/09/03 15:25:30;;;;;;;6.85;3.00;;;12.50;86.30;;;;;;6337767;22;19994;-76
2023/09/03 15:27:57;;;;;;;7.38;2.88;;;12.50;86.20;;;;;;6337035;22;20488;-76
2023/09/03 15:30:25;;;;;;;6.38;3.35;;;12.50;86.20;;;;;;6338165;22;20022;-75
2023/09/03 15:32:52;;;;;;;4.60;2.60;;;12.40;86.60;;;;;;6310066;22;20003;-76
2023/09/03 15:35:19;;;;;;;6.25;2.38;;;12.30;86.70;;;;;;6337658;22;20098;-75
2023/09/03 15:37:46;;;;;;;8.40;3.08;;;12.30;86.80;;;;;;6336521;22;20003;-76
2023/09/03 15:40:14;;;;;;;5.60;2.85;;;12.20;86.90;;;;;;6310309;22;20429;-76
2023/09/03 15:42:41;;;;;;;6.93;2.92;;;12.30;87.20;;;;;;6337231;22;20003;-76
2023/09/03 15:45:08;;;;;;;8.10;2.83;;;12.20;87.40;;;;;;6336954;22;19999;-76
2023/09/03 15:47:36;;;;;;;10.05;2.90;;;12.30;87.40;;;;;;6338128;22;20014;-75
2023/09/03 15:50:03;;;;;;;7.43;2.95;;;12.30;87.40;;;;;;6337421;22;20015;-75
2023/09/03 20:57:37;;;;;;;6.57;3.20;;;12.20;89.20;;;;;;6317760;22;20658;-79
2023/09/03 21:00:05;;;;;;;9.88;3.20;;;12.20;89.10;;;;;;6307174;22;20015;-79
2023/09/03 21:02:32;;;;;;;13.95;4.15;;;12.20;88.80;;;;;;6308176;22;20010;-79
2023/09/03 21:04:59;;;;;;;10.27;3.53;;;12.30;88.80;;;;;;6280854;22;20004;-79
2023/09/03 21:07:27;;;;;;;9.88;3.90;;;12.40;88.60;;;;;;6307683;22;20694;-79
2023/09/03 21:09:54;;;;;;;8.88;3.05;;;12.40;88.20;;;;;;6280659;22;20082;-79
2023/09/03 21:12:21;;;;;;;8.90;3.35;;;12.40;88.10;;;;;;6308369;22;19995;-79
2023/09/03 21:14:49;;;;;;;13.13;4.05;;;12.40;87.80;;;;;;6281086;22;20007;-78
2023/09/03 21:17:16;;;;;;;8.50;3.97;;;12.50;87.70;;;;;;6309466;22;20334;-81
2023/09/03 21:19:43;;;;;;;15.10;3.92;;;12.50;87.50;;;;;;6279764;22;20074;-79
2023/09/03 21:22:11;;;;;;;8.60;4.03;;;12.50;87.20;;;;;;6279587;22;20007;-86
2023/09/03 21:24:38;;;;;;;11.25;3.50;;;12.60;87.20;;;;;;6254223;22;20503;-78
2023/09/03 21:27:05;;;;;;;11.85;4.30;;;12.70;86.80;;;;;;6279901;22;20070;-78
2023/09/03 21:29:32;;;;;;;12.73;4.05;;;12.70;86.70;;;;;;6307103;22;20094;-77
2023/09/03 21:31:59;;;;;;;7.82;3.75;;;12.80;86.60;;;;;;6307349;22;20078;-77
2023/09/03 21:34:27;;;;;;;8.13;3.72;;;12.80;86.60;;;;;;6307242;22;20034;-77
2023/09/03 21:36:55;;;;;;;9.30;3.20;;;12.80;86.40;;;;;;6306089;22;20433;-77
2023/09/03 21:39:22;;;;;;;11.10;3.53;;;12.90;86.20;;;;;;6307215;22;19999;-76
2023/09/03 21:41:49;;;;;;;6.05;3.70;;;12.80;86.20;;;;;;6307422;22;20035;-75
2023/09/03 21:44:17;;;;;;;9.98;4.00;;;12.90;86.00;;;;;;6279595;22;20011;-75
2023/09/03 21:46:45;;;;;;;13.00;3.72;;;12.90;86.30;;;;;;6306713;22;20003;-75
2023/09/03 21:49:12;;;;;;;12.43;4.45;;;12.90;85.90;;;;;;6280136;22;20015;-77
2023/09/03 21:51:39;;;;;;;10.35;4.47;;;13.00;85.80;;;;;;6308081;22;20010;-76
2023/09/03 21:54:06;;;;;;;8.40;4.00;;;13.00;85.90;;;;;;6307431;22;20414;-76
2023/09/03 21:56:34;;;;;;;9.70;3.72;;;13.10;86.00;;;;;;6307232;22;20314;-76
